sensor_id;sensor_type;location;lat;lon;timestamp;temperature;humidity
9125;DHT22;4597;48.730;9.114;2023-04-19T00:00:18;10.60;99.90
9125;DHT22;4597;48.730;9.114;2023-04-19T00:02:45;10.60;99.90
9125;DHT22;4597;48.730;9.114;2023-04-19T00:05:13;10.70;99.90
9125;DHT22;4597;48.730;9.114;2023-04-19T00:07:39;10.70;99.90
9125;DHT22;4597;48.730;9.114;2023-04-19T00:10:05;10.60;99.90
9125;DHT22;4597;48.730;9.114;2023-04-19T00:12:31;10.60;99.90
9125;DHT22;4597;48.730;9.114;2023-04-19T00:14:57;10.60;99.90
9125;DHT22;4597;48.730;9.114;2023-04-19T00:17:22;10.50;99.90
9125;DHT22;4597;48.730;9.114;2023-04-19T00:19:47;10.50;99.90
9125;DHT22;4597;48.730;9.114;2023-04-19T00:22:13;10.40;99.90
9125;DHT22;4597;48.730;9.114;2023-04-19T00:24:39;10.50;99.90
9125;DHT22;4597;48.730;9.114;2023-04-19T00:27:04;10.50;99.90
9125;DHT22;4597;48.730;9.114;2023-04-19T00:29:30;10.50;99.90
9125;DHT22;4597;48.730;9.114;2023-04-19T00:31:56;10.50;99.90
9125;DHT22;4597;48.730;9.114;2023-04-19T00:34:21;10.40;99.90
9125;DHT22;4597;48.730;9.114;2023-04-19T00:36:46;10.30;99.90
9125;DHT22;4597;48.730;9.114;2023-04-19T00:39:12;10.50;99.90
9125;DHT22;4597;48.730;9.114;2023-04-19T00:41:38;10.50;99.90
9125;DHT22;4597;48.730;9.114;2023-04-19T00:44:03;10.50;99.90
9125;DHT22;4597;48.730;9.114;2023-04-19T00:46:29;10.40;99.90
9125;DHT22;4597;48.730;9.114;2023-04-19T00:48:54;10.40;99.90
9125;DHT22;4597;48.730;9.114;2023-04-19T00:51:20;10.40;99.90
9125;DHT22;4597;48.730;9.114;2023-04-19T00:53:46;10.40;99.90
9125;DHT22;4597;48.730;9.114;2023-04-19T00:56:13;10.40;99.90
9125;DHT22;4597;48.730;9.114;2023-04-19T00:58:39;10.40;99.90
9125;DHT22;4597;48.730;9.114;2023-04-19T01:01:04;10.30;99.90
9125;DHT22;4597;48.730;9.114;2023-04-19T01:03:30;10.30;99.90
9125;DHT22;4597;48.730;9.114;2023-04-19T01:05:56;10.30;99.90
9125;DHT22;4597;48.730;9.114;2023-04-19T01:08:22;10.30;99.90
9125;DHT22;4597;48.730;9.114;2023-04-19T01:10:48;10.20;99.90
9125;DHT22;4597;48.730;9.114;2023-04-19T01:13:14;10.10;99.90
9125;DHT22;4597;48.730;9.114;2023-04-19T01:15:39;10.00;99.90
9125;DHT22;4597;48.730;9.114;2023-04-19T01:18:05;10.00;99.90
9125;DHT22;4597;48.730;9.114;2023-04-19T01:20:31;10.00;99.90
9125;DHT22;4597;48.730;9.114;2023-04-19T01:22:57;10.00;99.90
9125;DHT22;4597;48.730;9.114;2023-04-19T01:25:22;10.00;99.90
9125;DHT22;4597;48.730;9.114;2023-04-19T01:27:48;10.00;99.90
9125;DHT22;4597;48.730;9.114;2023-04-19T01:30:13;10.00;99.90
9125;DHT22;4597;48.730;9.114;2023-04-19T01:32:39;10.10;99.90
9125;DHT22;4597;48.730;9.114;2023-04-19T01:35:05;10.00;99.90
9125;DHT22;4597;48.730;9.114;2023-04-19T01:37:34;9.90;99.90
9125;DHT22;4597;48.730;9.114;2023-04-19T01:39:59;10.00;99.90
9125;DHT22;4597;48.730;9.114;2023-04-19T01:42:25;10.00;99.90
9125;DHT22;4597;48.730;9.114;2023-04-19T01:44:51;10.10;99.90
9125;DHT22;4597;48.730;9.114;2023-04-19T01:47:16;10.10;99.90
9125;DHT22;4597;48.730;9.114;2023-04-19T01:49:42;10.00;99.90
9125;DHT22;4597;48.730;9.114;2023-04-19T01:52:07;10.00;99.90
9125;DHT22;4597;48.730;9.114;2023-04-19T01:54:33;10.00;99.90
9125;DHT22;4597;48.730;9.114;2023-04-19T01:56:58;9.90;99.90
9125;DHT22;4597;48.730;9.114;2023-04-19T01:59:24;10.00;99.90
9125;DHT22;4597;48.730;9.114;2023-04-19T02:01:49;9.80;99.90
9125;DHT22;4597;48.730;9.114;2023-04-19T02:04:15;9.70;99.90
9125;DHT22;4597;48.730;9.114;2023-04-19T02:06:40;9.70;99.90
9125;DHT22;4597;48.730;9.114;2023-04-19T02:09:06;9.90;99.90
9125;DHT22;4597;48.730;9.114;2023-04-19T02:11:32;9.80;99.90
9125;DHT22;4597;48.730;9.114;2023-04-19T02:13:58;9.80;99.90
9125;DHT22;4597;48.730;9.114;2023-04-19T02:16:23;9.90;99.90
9125;DHT22;4597;48.730;9.114;2023-04-19T02:18:49;9.90;99.90
9125;DHT22;4597;48.730;9.114;2023-04-19T02:21:15;9.80;99.90
9125;DHT22;4597;48.730;9.114;2023-04-19T02:23:40;9.90;99.90
9125;DHT22;4597;48.730;9.114;2023-04-19T02:26:06;9.80;99.90
9125;DHT22;4597;48.730;9.114;2023-04-19T02:28:31;9.80;99.90
9125;DHT22;4597;48.730;9.114;2023-04-19T02:30:57;9.80;99.90
9125;DHT22;4597;48.730;9.114;2023-04-19T02:33:25;10.00;99.90
9125;DHT22;4597;48.730;9.114;2023-04-19T02:35:51;10.00;99.90
9125;DHT22;4597;48.730;9.114;2023-04-19T02:38:16;9.90;99.90
9125;DHT22;4597;48.730;9.114;2023-04-19T02:40:42;9.80;99.90
9125;DHT22;4597;48.730;9.114;2023-04-19T02:43:08;9.90;99.90
9125;DHT22;4597;48.730;9.114;2023-04-19T02:45:33;9.90;99.90
9125;DHT22;4597;48.730;9.114;2023-04-19T02:47:59;9.80;99.90
9125;DHT22;4597;48.730;9.114;2023-04-19T02:50:26;9.70;99.90
9125;DHT22;4597;48.730;9.114;2023-04-19T02:52:51;9.80;99.90
9125;DHT22;4597;48.730;9.114;2023-04-19T02:55:17;9.80;99.90
9125;DHT22;4597;48.730;9.114;2023-04-19T02:57:43;9.60;99.90
9125;DHT22;4597;48.730;9.114;2023-04-19T03:00:09;9.70;99.90
9125;DHT22;4597;48.730;9.114;2023-04-19T03:02:35;9.70;99.90
9125;DHT22;4597;48.730;9.114;2023-04-19T03:05:01;9.60;99.90
9125;DHT22;4597;48.730;9.114;2023-04-19T03:07:27;9.60;99.90
9125;DHT22;4597;48.730;9.114;2023-04-19T03:09:52;9.60;99.90
9125;DHT22;4597;48.730;9.114;2023-04-19T03:12:17;9.70;99.90
9125;DHT22;4597;48.730;9.114;2023-04-19T03:14:43;9.60;99.90
9125;DHT22;4597;48.730;9.114;2023-04-19T03:17:08;9.60;99.90
9125;DHT22;4597;48.730;9.114;2023-04-19T03:19:34;9.60;99.90
9125;DHT22;4597;48.730;9.114;2023-04-19T03:21:59;9.60;99.90
9125;DHT22;4597;48.730;9.114;2023-04-19T03:24:29;9.60;99.90
9125;DHT22;4597;48.730;9.114;2023-04-19T03:26:55;9.60;99.90
9125;DHT22;4597;48.730;9.114;2023-04-19T03:29:21;9.70;99.90
9125;DHT22;4597;48.730;9.114;2023-04-19T03:31:47;9.60;99.90
9125;DHT22;4597;48.730;9.114;2023-04-19T03:34:12;9.70;99.90
9125;DHT22;4597;48.730;9.114;2023-04-19T03:36:39;9.70;99.90
9125;DHT22;4597;48.730;9.114;2023-04-19T03:39:04;9.70;99.90
9125;DHT22;4597;48.730;9.114;2023-04-19T03:41:30;9.60;99.90
9125;DHT22;4597;48.730;9.114;2023-04-19T03:43:55;9.60;99.90
9125;DHT22;4597;48.730;9.114;2023-04-19T03:46:22;9.60;99.90
9125;DHT22;4597;48.730;9.114;2023-04-19T03:48:48;9.50;99.90
9125;DHT22;4597;48.730;9.114;2023-04-19T03:51:13;9.50;99.90
9125;DHT22;4597;48.730;9.114;2023-04-19T03:53:40;9.40;99.90
9125;DHT22;4597;48.730;9.114;2023-04-19T03:56:05;9.50;99.90
9125;DHT22;4597;48.730;9.114;2023-04-19T03:58:31;9.60;99.90
9125;DHT22;4597;48.730;9.114;2023-04-19T04:00:58;9.60;99.90
9125;DHT22;4597;48.730;9.114;2023-04-19T04:03:24;9.60;99.90
9125;DHT22;4597;48.730;9.114;2023-04-19T04:05:49;9.70;99.90
9125;DHT22;4597;48.730;9.114;2023-04-19T04:08:14;9.70;99.90
9125;DHT22;4597;48.730;9.114;2023-04-19T04:10:40;9.60;99.90
9125;DHT22;4597;48.730;9.114;2023-04-19T04:13:05;9.60;99.90
9125;DHT22;4597;48.730;9.114;2023-04-19T04:15:31;9.70;99.90
9125;DHT22;4597;48.730;9.114;2023-04-19T04:17:56;9.70;99.90
9125;DHT22;4597;48.730;9.114;2023-04-19T04:20:22;9.80;99.90
9125;DHT22;4597;48.730;9.114;2023-04-19T04:22:47;9.60;99.90
9125;DHT22;4597;48.730;9.114;2023-04-19T04:25:14;9.60;99.90
9125;DHT22;4597;48.730;9.114;2023-04-19T04:27:42;9.50;99.90
9125;DHT22;4597;48.730;9.114;2023-04-19T04:30:11;9.40;99.90
9125;DHT22;4597;48.730;9.114;2023-04-19T04:32:37;9.20;99.90
9125;DHT22;4597;48.730;9.114;2023-04-19T04:35:06;9.20;99.90
9125;DHT22;4597;48.730;9.114;2023-04-19T04:37:33;9.20;99.90
9125;DHT22;4597;48.730;9.114;2023-04-19T04:40:00;9.20;99.90
9125;DHT22;4597;48.730;9.114;2023-04-19T04:42:26;9.10;99.90
9125;DHT22;4597;48.730;9.114;2023-04-19T04:44:52;9.20;99.90
9125;DHT22;4597;48.730;9.114;2023-04-19T04:47:17;9.20;99.90
9125;DHT22;4597;48.730;9.114;2023-04-19T04:49:43;9.20;99.90
9125;DHT22;4597;48.730;9.114;2023-04-19T04:52:08;9.30;99.90
9125;DHT22;4597;48.730;9.114;2023-04-19T04:54:34;9.30;99.90
9125;DHT22;4597;48.730;9.114;2023-04-19T04:56:59;9.30;99.90
9125;DHT22;4597;48.730;9.114;2023-04-19T04:59:26;9.10;99.90
9125;DHT22;4597;48.730;9.114;2023-04-19T05:01:51;9.00;99.90
9125;DHT22;4597;48.730;9.114;2023-04-19T05:04:18;9.00;99.90
9125;DHT22;4597;48.730;9.114;2023-04-19T05:06:43;9.10;99.90
9125;DHT22;4597;48.730;9.114;2023-04-19T05:09:09;9.10;99.90
9125;DHT22;4597;48.730;9.114;2023-04-19T05:11:35;9.00;99.90
9125;DHT22;4597;48.730;9.114;2023-04-19T05:14:01;9.10;99.90
9125;DHT22;4597;48.730;9.114;2023-04-19T05:16:27;9.10;99.90
9125;DHT22;4597;48.730;9.114;2023-04-19T05:18:52;9.10;99.90
9125;DHT22;4597;48.730;9.114;2023-04-19T05:21:18;9.10;99.90
9125;DHT22;4597;48.730;9.114;2023-04-19T05:23:43;9.20;99.90
9125;DHT22;4597;48.730;9.114;2023-04-19T05:26:09;9.30;99.90
9125;DHT22;4597;48.730;9.114;2023-04-19T05:28:40;9.30;99.90
9125;DHT22;4597;48.730;9.114;2023-04-19T05:31:07;9.30;99.90
9125;DHT22;4597;48.730;9.114;2023-04-19T05:33:33;9.40;99.90
9125;DHT22;4597;48.730;9.114;2023-04-19T05:35:58;9.50;99.90
9125;DHT22;4597;48.730;9.114;2023-04-19T05:38:24;9.60;99.90
9125;DHT22;4597;48.730;9.114;2023-04-19T05:40:49;9.60;99.90
9125;DHT22;4597;48.730;9.114;2023-04-19T05:43:15;9.50;99.90
9125;DHT22;4597;48.730;9.114;2023-04-19T05:45:40;9.60;99.90
9125;DHT22;4597;48.730;9.114;2023-04-19T05:48:06;9.50;99.90
9125;DHT22;4597;48.730;9.114;2023-04-19T05:50:31;9.70;99.90
9125;DHT22;4597;48.730;9.114;2023-04-19T05:52:57;9.60;99.90
9125;DHT22;4597;48.730;9.114;2023-04-19T05:55:23;9.50;99.90
9125;DHT22;4597;48.730;9.114;2023-04-19T05:57:49;9.40;99.90
9125;DHT22;4597;48.730;9.114;2023-04-19T06:00:15;9.50;99.90
9125;DHT22;4597;48.730;9.114;2023-04-19T06:02:40;9.50;99.90
9125;DHT22;4597;48.730;9.114;2023-04-19T06:05:08;9.50;99.90
9125;DHT22;4597;48.730;9.114;2023-04-19T06:07:33;9.50;99.90
9125;DHT22;4597;48.730;9.114;2023-04-19T06:09:59;9.60;99.90
9125;DHT22;4597;48.730;9.114;2023-04-19T06:12:24;9.70;99.90
9125;DHT22;4597;48.730;9.114;2023-04-19T06:14:51;9.80;99.90
9125;DHT22;4597;48.730;9.114;2023-04-19T06:17:16;9.80;99.90
9125;DHT22;4597;48.730;9.114;2023-04-19T06:19:47;9.80;99.90
9125;DHT22;4597;48.730;9.114;2023-04-19T06:22:13;9.80;99.90
9125;DHT22;4597;48.730;9.114;2023-04-19T06:24:38;9.70;99.90
9125;DHT22;4597;48.730;9.114;2023-04-19T06:27:04;9.70;99.90
9125;DHT22;4597;48.730;9.114;2023-04-19T06:29:29;9.80;99.90
9125;DHT22;4597;48.730;9.114;2023-04-19T06:31:55;9.60;99.90
9125;DHT22;4597;48.730;9.114;2023-04-19T06:34:20;9.60;99.90
9125;DHT22;4597;48.730;9.114;2023-04-19T06:36:46;9.60;99.90
9125;DHT22;4597;48.730;9.114;2023-04-19T06:39:11;9.50;99.90
9125;DHT22;4597;48.730;9.114;2023-04-19T06:41:37;9.50;99.90
9125;DHT22;4597;48.730;9.114;2023-04-19T06:44:02;9.60;99.90
9125;DHT22;4597;48.730;9.114;2023-04-19T06:46:28;9.60;99.90
9125;DHT22;4597;48.730;9.114;2023-04-19T06:48:53;9.70;99.90
9125;DHT22;4597;48.730;9.114;2023-04-19T06:51:19;9.60;99.90
9125;DHT22;4597;48.730;9.114;2023-04-19T06:53:44;9.60;99.90
9125;DHT22;4597;48.730;9.114;2023-04-19T06:56:10;9.70;99.90
9125;DHT22;4597;48.730;9.114;2023-04-19T06:58:37;9.70;99.90
9125;DHT22;4597;48.730;9.114;2023-04-19T07:01:03;9.80;99.90
9125;DHT22;4597;48.730;9.114;2023-04-19T07:03:29;9.80;99.90
9125;DHT22;4597;48.730;9.114;2023-04-19T07:05:54;9.80;99.90
9125;DHT22;4597;48.730;9.114;2023-04-19T07:08:21;9.90;99.90
9125;DHT22;4597;48.730;9.114;2023-04-19T07:10:47;10.00;99.90
9125;DHT22;4597;48.730;9.114;2023-04-19T07:13:12;10.00;99.90
9125;DHT22;4597;48.730;9.114;2023-04-19T07:15:38;10.00;99.90
9125;DHT22;4597;48.730;9.114;2023-04-19T07:18:04;10.00;99.90
9125;DHT22;4597;48.730;9.114;2023-04-19T07:20:29;10.00;99.90
9125;DHT22;4597;48.730;9.114;2023-04-19T07:22:59;10.00;99.90
9125;DHT22;4597;48.730;9.114;2023-04-19T07:25:25;10.10;99.90
9125;DHT22;4597;48.730;9.114;2023-04-19T07:27:54;10.10;99.90
9125;DHT22;4597;48.730;9.114;2023-04-19T07:30:21;10.20;99.90
9125;DHT22;4597;48.730;9.114;2023-04-19T07:32:46;10.30;99.90
9125;DHT22;4597;48.730;9.114;2023-04-19T07:35:12;10.30;99.90
9125;DHT22;4597;48.730;9.114;2023-04-19T07:37:38;10.30;99.90
9125;DHT22;4597;48.730;9.114;2023-04-19T07:40:04;10.50;99.90
9125;DHT22;4597;48.730;9.114;2023-04-19T07:42:30;10.60;99.90
9125;DHT22;4597;48.730;9.114;2023-04-19T07:44:55;10.70;99.90
9125;DHT22;4597;48.730;9.114;2023-04-19T07:47:21;10.80;99.90
9125;DHT22;4597;48.730;9.114;2023-04-19T07:49:51;10.80;99.90
9125;DHT22;4597;48.730;9.114;2023-04-19T07:52:16;10.80;99.90
9125;DHT22;4597;48.730;9.114;2023-04-19T07:54:42;10.80;99.90
9125;DHT22;4597;48.730;9.114;2023-04-19T07:57:08;10.70;99.90
9125;DHT22;4597;48.730;9.114;2023-04-19T07:59:33;10.70;99.90
9125;DHT22;4597;48.730;9.114;2023-04-19T08:01:59;10.70;99.90
9125;DHT22;4597;48.730;9.114;2023-04-19T08:04:25;10.60;99.90
9125;DHT22;4597;48.730;9.114;2023-04-19T08:06:50;10.60;99.90
9125;DHT22;4597;48.730;9.114;2023-04-19T08:09:17;10.60;99.90
9125;DHT22;4597;48.730;9.114;2023-04-19T08:11:42;10.80;99.90
9125;DHT22;4597;48.730;9.114;2023-04-19T08:14:08;10.90;99.90
9125;DHT22;4597;48.730;9.114;2023-04-19T08:16:34;10.90;99.90
9125;DHT22;4597;48.730;9.114;2023-04-19T08:18:59;11.10;99.90
9125;DHT22;4597;48.730;9.114;2023-04-19T08:21:25;11.20;99.90
9125;DHT22;4597;48.730;9.114;2023-04-19T08:23:51;11.30;99.90
9125;DHT22;4597;48.730;9.114;2023-04-19T08:26:16;11.40;99.90
9125;DHT22;4597;48.730;9.114;2023-04-19T08:28:42;11.50;99.90
9125;DHT22;4597;48.730;9.114;2023-04-19T08:31:08;11.60;99.90
9125;DHT22;4597;48.730;9.114;2023-04-19T08:33:33;11.70;99.90
9125;DHT22;4597;48.730;9.114;2023-04-19T08:35:59;11.80;99.90
9125;DHT22;4597;48.730;9.114;2023-04-19T08:38:25;11.80;99.90
9125;DHT22;4597;48.730;9.114;2023-04-19T08:40:52;11.80;99.90
9125;DHT22;4597;48.730;9.114;2023-04-19T08:43:18;11.80;99.90
9125;DHT22;4597;48.730;9.114;2023-04-19T08:45:47;11.90;99.90
9125;DHT22;4597;48.730;9.114;2023-04-19T08:48:14;11.90;99.90
9125;DHT22;4597;48.730;9.114;2023-04-19T08:50:41;12.10;99.90
9125;DHT22;4597;48.730;9.114;2023-04-19T08:53:08;12.10;99.90
9125;DHT22;4597;48.730;9.114;2023-04-19T08:55:34;12.00;99.90
9125;DHT22;4597;48.730;9.114;2023-04-19T08:58:02;12.10;99.90
9125;DHT22;4597;48.730;9.114;2023-04-19T09:00:28;12.20;99.90
9125;DHT22;4597;48.730;9.114;2023-04-19T09:02:53;12.40;99.90
9125;DHT22;4597;48.730;9.114;2023-04-19T09:05:20;12.60;99.90
9125;DHT22;4597;48.730;9.114;2023-04-19T09:07:46;12.70;99.90
9125;DHT22;4597;48.730;9.114;2023-04-19T09:10:15;12.90;99.90
9125;DHT22;4597;48.730;9.114;2023-04-19T09:12:41;12.90;99.90
9125;DHT22;4597;48.730;9.114;2023-04-19T09:15:07;13.00;99.90
9125;DHT22;4597;48.730;9.114;2023-04-19T09:17:35;13.20;99.90
9125;DHT22;4597;48.730;9.114;2023-04-19T09:20:01;13.20;99.90
9125;DHT22;4597;48.730;9.114;2023-04-19T09:22:28;13.10;99.90
9125;DHT22;4597;48.730;9.114;2023-04-19T09:24:53;13.10;99.90
9125;DHT22;4597;48.730;9.114;2023-04-19T09:29:55;13.00;99.90
9125;DHT22;4597;48.730;9.114;2023-04-19T09:32:21;13.10;99.90
9125;DHT22;4597;48.730;9.114;2023-04-19T09:34:55;13.20;99.90
9125;DHT22;4597;48.730;9.114;2023-04-19T09:37:22;13.30;99.90
9125;DHT22;4597;48.730;9.114;2023-04-19T09:39:48;13.40;99.90
9125;DHT22;4597;48.730;9.114;2023-04-19T09:42:13;13.50;99.90
9125;DHT22;4597;48.730;9.114;2023-04-19T09:44:39;13.60;99.90
9125;DHT22;4597;48.730;9.114;2023-04-19T09:47:21;13.50;99.90
9125;DHT22;4597;48.730;9.114;2023-04-19T09:50:03;13.50;99.90
9125;DHT22;4597;48.730;9.114;2023-04-19T09:52:29;13.60;99.90
9125;DHT22;4597;48.730;9.114;2023-04-19T09:54:54;13.60;99.90
9125;DHT22;4597;48.730;9.114;2023-04-19T09:57:21;13.60;99.90
9125;DHT22;4597;48.730;9.114;2023-04-19T09:59:47;13.60;99.90
9125;DHT22;4597;48.730;9.114;2023-04-19T10:02:13;13.70;99.90
9125;DHT22;4597;48.730;9.114;2023-04-19T10:04:40;13.70;99.90
9125;DHT22;4597;48.730;9.114;2023-04-19T10:07:06;13.60;99.90
9125;DHT22;4597;48.730;9.114;2023-04-19T10:09:34;13.60;99.90
9125;DHT22;4597;48.730;9.114;2023-04-19T10:12:00;13.50;99.90
9125;DHT22;4597;48.730;9.114;2023-04-19T10:14:29;13.40;99.90
9125;DHT22;4597;48.730;9.114;2023-04-19T10:16:57;13.40;99.90
9125;DHT22;4597;48.730;9.114;2023-04-19T10:19:24;13.40;99.90
9125;DHT22;4597;48.730;9.114;2023-04-19T10:21:51;13.50;99.90
9125;DHT22;4597;48.730;9.114;2023-04-19T10:24:17;13.40;99.90
9125;DHT22;4597;48.730;9.114;2023-04-19T10:27:06;13.30;99.90
9125;DHT22;4597;48.730;9.114;2023-04-19T10:32:16;13.40;99.90
9125;DHT22;4597;48.730;9.114;2023-04-19T10:34:41;13.30;99.90
9125;DHT22;4597;48.730;9.114;2023-04-19T10:37:11;13.20;99.90
9125;DHT22;4597;48.730;9.114;2023-04-19T10:39:42;13.10;99.90
9125;DHT22;4597;48.730;9.114;2023-04-19T10:42:08;13.00;99.90
9125;DHT22;4597;48.730;9.114;2023-04-19T10:44:34;13.00;99.90
9125;DHT22;4597;48.730;9.114;2023-04-19T10:46:59;13.10;99.90
9125;DHT22;4597;48.730;9.114;2023-04-19T10:49:28;13.20;99.90
9125;DHT22;4597;48.730;9.114;2023-04-19T10:51:54;13.20;99.90
9125;DHT22;4597;48.730;9.114;2023-04-19T10:57:02;13.00;99.90
9125;DHT22;4597;48.730;9.114;2023-04-19T10:59:33;12.90;99.90
9125;DHT22;4597;48.730;9.114;2023-04-19T11:02:01;12.90;99.90
9125;DHT22;4597;48.730;9.114;2023-04-19T11:09:44;13.00;99.90
9125;DHT22;4597;48.730;9.114;2023-04-19T11:12:12;12.90;99.90
9125;DHT22;4597;48.730;9.114;2023-04-19T11:14:48;12.90;99.90
9125;DHT22;4597;48.730;9.114;2023-04-19T11:17:23;12.90;99.90
9125;DHT22;4597;48.730;9.114;2023-04-19T11:22:52;12.70;99.90
9125;DHT22;4597;48.730;9.114;2023-04-19T11:25:20;12.60;99.90
9125;DHT22;4597;48.730;9.114;2023-04-19T11:27:50;12.60;99.90
9125;DHT22;4597;48.730;9.114;2023-04-19T11:30:19;12.50;99.90
9125;DHT22;4597;48.730;9.114;2023-04-19T11:32:51;12.50;99.90
9125;DHT22;4597;48.730;9.114;2023-04-19T11:35:24;12.40;99.90
9125;DHT22;4597;48.730;9.114;2023-04-19T11:37:50;12.60;99.90
9125;DHT22;4597;48.730;9.114;2023-04-19T11:40:18;12.50;99.90
9125;DHT22;4597;48.730;9.114;2023-04-19T11:42:44;12.50;99.90
9125;DHT22;4597;48.730;9.114;2023-04-19T11:45:10;12.30;99.90
9125;DHT22;4597;48.730;9.114;2023-04-19T11:47:49;12.30;99.90
9125;DHT22;4597;48.730;9.114;2023-04-19T11:53:08;12.20;99.90
9125;DHT22;4597;48.730;9.114;2023-04-19T11:55:34;12.10;99.90
9125;DHT22;4597;48.730;9.114;2023-04-19T11:57:59;12.00;99.90
9125;DHT22;4597;48.730;9.114;2023-04-19T12:00:29;12.10;99.90
9125;DHT22;4597;48.730;9.114;2023-04-19T12:02:55;12.00;99.90
9125;DHT22;4597;48.730;9.114;2023-04-19T12:05:20;11.90;99.90
9125;DHT22;4597;48.730;9.114;2023-04-19T12:08:04;11.60;99.90
9125;DHT22;4597;48.730;9.114;2023-04-19T12:10:31;11.60;99.90
9125;DHT22;4597;48.730;9.114;2023-04-19T12:12:56;11.50;99.90
9125;DHT22;4597;48.730;9.114;2023-04-19T12:15:23;11.60;99.90
9125;DHT22;4597;48.730;9.114;2023-04-19T12:17:59;11.50;99.90
9125;DHT22;4597;48.730;9.114;2023-04-19T12:20:33;11.60;99.90
9125;DHT22;4597;48.730;9.114;2023-04-19T12:22:59;11.60;99.90
9125;DHT22;4597;48.730;9.114;2023-04-19T12:25:32;11.60;99.90
9125;DHT22;4597;48.730;9.114;2023-04-19T12:28:01;11.60;99.90
9125;DHT22;4597;48.730;9.114;2023-04-19T12:30:27;11.50;99.90
9125;DHT22;4597;48.730;9.114;2023-04-19T12:32:57;11.40;99.90
9125;DHT22;4597;48.730;9.114;2023-04-19T12:35:24;11.40;99.90
9125;DHT22;4597;48.730;9.114;2023-04-19T12:37:52;11.40;99.90
9125;DHT22;4597;48.730;9.114;2023-04-19T12:40:18;11.40;99.90
9125;DHT22;4597;48.730;9.114;2023-04-19T12:42:43;11.40;99.90
9125;DHT22;4597;48.730;9.114;2023-04-19T12:45:09;11.40;99.90
9125;DHT22;4597;48.730;9.114;2023-04-19T12:47:35;11.60;99.90
9125;DHT22;4597;48.730;9.114;2023-04-19T12:50:01;11.40;99.90
9125;DHT22;4597;48.730;9.114;2023-04-19T12:52:27;11.40;99.90
9125;DHT22;4597;48.730;9.114;2023-04-19T12:54:52;11.40;99.90
9125;DHT22;4597;48.730;9.114;2023-04-19T12:57:18;11.50;99.90
9125;DHT22;4597;48.730;9.114;2023-04-19T12:59:43;11.50;99.90
9125;DHT22;4597;48.730;9.114;2023-04-19T13:02:09;11.50;99.90
9125;DHT22;4597;48.730;9.114;2023-04-19T13:04:35;11.50;99.90
9125;DHT22;4597;48.730;9.114;2023-04-19T13:07:00;11.50;99.90
9125;DHT22;4597;48.730;9.114;2023-04-19T13:09:27;11.50;99.90
9125;DHT22;4597;48.730;9.114;2023-04-19T13:11:56;11.50;99.90
9125;DHT22;4597;48.730;9.114;2023-04-19T13:14:22;11.50;99.90
9125;DHT22;4597;48.730;9.114;2023-04-19T13:16:48;11.50;99.90
9125;DHT22;4597;48.730;9.114;2023-04-19T13:19:13;11.50;99.90
9125;DHT22;4597;48.730;9.114;2023-04-19T13:21:39;11.60;99.90
9125;DHT22;4597;48.730;9.114;2023-04-19T13:24:04;11.60;99.90
9125;DHT22;4597;48.730;9.114;2023-04-19T13:26:30;11.80;99.90
9125;DHT22;4597;48.730;9.114;2023-04-19T13:28:55;11.80;99.90
9125;DHT22;4597;48.730;9.114;2023-04-19T13:31:21;11.80;99.90
9125;DHT22;4597;48.730;9.114;2023-04-19T13:33:46;11.80;99.90
9125;DHT22;4597;48.730;9.114;2023-04-19T13:36:12;11.80;99.90
9125;DHT22;4597;48.730;9.114;2023-04-19T13:38:37;12.00;99.90
9125;DHT22;4597;48.730;9.114;2023-04-19T13:41:03;12.10;99.90
9125;DHT22;4597;48.730;9.114;2023-04-19T13:43:29;12.00;99.90
9125;DHT22;4597;48.730;9.114;2023-04-19T13:45:54;12.10;99.90
9125;DHT22;4597;48.730;9.114;2023-04-19T13:48:20;12.10;99.90
9125;DHT22;4597;48.730;9.114;2023-04-19T13:50:45;12.20;99.90
9125;DHT22;4597;48.730;9.114;2023-04-19T13:53:11;12.10;99.90
9125;DHT22;4597;48.730;9.114;2023-04-19T13:55:37;12.10;99.90
9125;DHT22;4597;48.730;9.114;2023-04-19T13:58:02;12.10;99.90
9125;DHT22;4597;48.730;9.114;2023-04-19T14:00:28;12.10;99.90
9125;DHT22;4597;48.730;9.114;2023-04-19T14:02:54;12.10;99.90
9125;DHT22;4597;48.730;9.114;2023-04-19T14:05:20;12.00;99.90
9125;DHT22;4597;48.730;9.114;2023-04-19T14:07:46;11.90;99.90
9125;DHT22;4597;48.730;9.114;2023-04-19T14:10:11;11.90;99.90
9125;DHT22;4597;48.730;9.114;2023-04-19T14:12:37;11.80;99.90
9125;DHT22;4597;48.730;9.114;2023-04-19T14:15:03;11.80;99.90
9125;DHT22;4597;48.730;9.114;2023-04-19T14:17:28;11.70;99.90
9125;DHT22;4597;48.730;9.114;2023-04-19T14:19:54;11.80;99.90
9125;DHT22;4597;48.730;9.114;2023-04-19T14:22:20;11.80;99.90
9125;DHT22;4597;48.730;9.114;2023-04-19T14:24:46;11.90;99.90
9125;DHT22;4597;48.730;9.114;2023-04-19T14:27:11;12.00;99.90
9125;DHT22;4597;48.730;9.114;2023-04-19T14:29:37;12.10;99.90
9125;DHT22;4597;48.730;9.114;2023-04-19T14:32:03;12.20;99.90
9125;DHT22;4597;48.730;9.114;2023-04-19T14:34:29;12.40;99.90
9125;DHT22;4597;48.730;9.114;2023-04-19T14:36:55;12.50;99.90
9125;DHT22;4597;48.730;9.114;2023-04-19T14:39:20;12.50;99.90
9125;DHT22;4597;48.730;9.114;2023-04-19T14:41:46;12.60;99.90
9125;DHT22;4597;48.730;9.114;2023-04-19T14:44:11;12.70;99.90
9125;DHT22;4597;48.730;9.114;2023-04-19T14:46:37;12.90;99.90
9125;DHT22;4597;48.730;9.114;2023-04-19T14:49:02;13.00;99.90
9125;DHT22;4597;48.730;9.114;2023-04-19T14:51:30;13.10;99.90
9125;DHT22;4597;48.730;9.114;2023-04-19T14:53:57;13.10;99.90
9125;DHT22;4597;48.730;9.114;2023-04-19T14:56:22;13.10;99.90
9125;DHT22;4597;48.730;9.114;2023-04-19T14:58:48;13.30;99.90
9125;DHT22;4597;48.730;9.114;2023-04-19T15:01:14;13.40;99.90
9125;DHT22;4597;48.730;9.114;2023-04-19T15:03:40;13.70;99.90
9125;DHT22;4597;48.730;9.114;2023-04-19T15:06:06;13.70;99.90
9125;DHT22;4597;48.730;9.114;2023-04-19T15:08:32;13.70;99.90
9125;DHT22;4597;48.730;9.114;2023-04-19T15:10:57;13.70;99.90
9125;DHT22;4597;48.730;9.114;2023-04-19T15:13:23;13.60;99.90
9125;DHT22;4597;48.730;9.114;2023-04-19T15:15:49;13.50;99.90
9125;DHT22;4597;48.730;9.114;2023-04-19T15:18:14;13.40;99.90
9125;DHT22;4597;48.730;9.114;2023-04-19T15:20:41;13.50;99.90
9125;DHT22;4597;48.730;9.114;2023-04-19T15:23:06;13.60;99.90
9125;DHT22;4597;48.730;9.114;2023-04-19T15:25:33;14.10;99.90
9125;DHT22;4597;48.730;9.114;2023-04-19T15:27:59;14.70;99.90
9125;DHT22;4597;48.730;9.114;2023-04-19T15:30:25;15.20;99.90
9125;DHT22;4597;48.730;9.114;2023-04-19T15:32:51;15.60;99.90
9125;DHT22;4597;48.730;9.114;2023-04-19T15:35:16;16.00;99.90
9125;DHT22;4597;48.730;9.114;2023-04-19T15:37:42;16.50;99.90
9125;DHT22;4597;48.730;9.114;2023-04-19T15:40:08;16.60;99.90
9125;DHT22;4597;48.730;9.114;2023-04-19T15:42:35;17.10;99.90
9125;DHT22;4597;48.730;9.114;2023-04-19T15:45:01;17.50;97.00
9125;DHT22;4597;48.730;9.114;2023-04-19T15:47:27;17.60;92.00
9125;DHT22;4597;48.730;9.114;2023-04-19T15:49:52;17.80;90.60
9125;DHT22;4597;48.730;9.114;2023-04-19T15:52:18;18.00;92.10
9125;DHT22;4597;48.730;9.114;2023-04-19T15:54:44;17.80;88.60
9125;DHT22;4597;48.730;9.114;2023-04-19T15:57:10;17.70;89.60
9125;DHT22;4597;48.730;9.114;2023-04-19T15:59:35;17.40;90.40
9125;DHT22;4597;48.730;9.114;2023-04-19T16:02:01;17.00;87.70
9125;DHT22;4597;48.730;9.114;2023-04-19T16:04:26;16.70;84.20
9125;DHT22;4597;48.730;9.114;2023-04-19T16:06:52;16.60;86.50
9125;DHT22;4597;48.730;9.114;2023-04-19T16:09:17;16.20;84.90
9125;DHT22;4597;48.730;9.114;2023-04-19T16:11:43;16.50;87.20
9125;DHT22;4597;48.730;9.114;2023-04-19T16:14:08;16.70;84.90
9125;DHT22;4597;48.730;9.114;2023-04-19T16:16:34;17.00;78.10
9125;DHT22;4597;48.730;9.114;2023-04-19T16:18:59;16.80;60.90